sensor_id;sensor_type;location;lat;lon;timestamp;P1;P2;P0
60245;PMS5003;46107;53.356;-1.524;2024-02-04T00:01:01;8;8;
60245;PMS5003;46107;53.356;-1.524;2024-02-04T00:03:28;11;9;
60245;PMS5003;46107;53.356;-1.524;2024-02-04T00:05:56;6;6;
60245;PMS5003;46107;53.356;-1.524;2024-02-04T00:08:31;8;8;
60245;PMS5003;46107;53.356;-1.524;2024-02-04T00:11:00;10;8;
60245;PMS5003;46107;53.356;-1.524;2024-02-04T00:16:29;11;10;
60245;PMS5003;46107;53.356;-1.524;2024-02-04T00:18:56;11;10;
60245;PMS5003;46107;53.356;-1.524;2024-02-04T00:21:25;14;11;
60245;PMS5003;46107;53.356;-1.524;2024-02-04T00:23:52;7;7;
60245;PMS5003;46107;53.356;-1.524;2024-02-04T00:26:20;11;9;
60245;PMS5003;46107;53.356;-1.524;2024-02-04T00:28:50;8;7;
60245;PMS5003;46107;53.356;-1.524;2024-02-04T00:31:18;7;7;
60245;PMS5003;46107;53.356;-1.524;2024-02-04T00:33:47;8;8;
60245;PMS5003;46107;53.356;-1.524;2024-02-04T00:36:16;8;6;
60245;PMS5003;46107;53.356;-1.524;2024-02-04T00:38:46;6;6;
60245;PMS5003;46107;53.356;-1.524;2024-02-04T00:41:14;7;4;
60245;PMS5003;46107;53.356;-1.524;2024-02-04T00:43:47;4;4;
60245;PMS5003;46107;53.356;-1.524;2024-02-04T00:46:16;7;4;
60245;PMS5003;46107;53.356;-1.524;2024-02-04T00:48:43;7;5;
60245;PMS5003;46107;53.356;-1.524;2024-02-04T00:51:12;3;3;
60245;PMS5003;46107;53.356;-1.524;2024-02-04T00:53:40;5;4;
60245;PMS5003;46107;53.356;-1.524;2024-02-04T00:56:07;7;4;
60245;PMS5003;46107;53.356;-1.524;2024-02-04T00:58:35;4;3;
60245;PMS5003;46107;53.356;-1.524;2024-02-04T01:01:04;5;3;
60245;PMS5003;46107;53.356;-1.524;2024-02-04T01:03:32;2;2;
60245;PMS5003;46107;53.356;-1.524;2024-02-04T01:05:59;2;2;
60245;PMS5003;46107;53.356;-1.524;2024-02-04T01:08:28;3;3;
60245;PMS5003;46107;53.356;-1.524;2024-02-04T01:10:57;4;3;
60245;PMS5003;46107;53.356;-1.524;2024-02-04T01:13:24;2;1;
60245;PMS5003;46107;53.356;-1.524;2024-02-04T01:15:51;3;3;
60245;PMS5003;46107;53.356;-1.524;2024-02-04T01:18:29;3;3;
60245;PMS5003;46107;53.356;-1.524;2024-02-04T01:20:57;4;4;
60245;PMS5003;46107;53.356;-1.524;2024-02-04T01:23:24;5;4;
60245;PMS5003;46107;53.356;-1.524;2024-02-04T01:26:06;4;4;
60245;PMS5003;46107;53.356;-1.524;2024-02-04T01:28:34;5;3;
60245;PMS5003;46107;53.356;-1.524;2024-02-04T01:31:04;2;1;
60245;PMS5003;46107;53.356;-1.524;2024-02-04T01:33:32;4;3;
60245;PMS5003;46107;53.356;-1.524;2024-02-04T01:36:00;5;2;
60245;PMS5003;46107;53.356;-1.524;2024-02-04T01:38:27;5;3;
60245;PMS5003;46107;53.356;-1.524;2024-02-04T01:40:55;3;1;
60245;PMS5003;46107;53.356;-1.524;2024-02-04T01:43:22;2;2;
60245;PMS5003;46107;53.356;-1.524;2024-02-04T01:45:53;4;2;
60245;PMS5003;46107;53.356;-1.524;2024-02-04T01:48:21;6;4;
60245;PMS5003;46107;53.356;-1.524;2024-02-04T01:50:50;2;2;
60245;PMS5003;46107;53.356;-1.524;2024-02-04T01:53:19;7;3;
60245;PMS5003;46107;53.356;-1.524;2024-02-04T01:55:49;4;4;
60245;PMS5003;46107;53.356;-1.524;2024-02-04T01:58:18;2;1;
60245;PMS5003;46107;53.356;-1.524;2024-02-04T02:00:45;4;2;
60245;PMS5003;46107;53.356;-1.524;2024-02-04T02:03:14;3;2;
60245;PMS5003;46107;53.356;-1.524;2024-02-04T02:05:44;3;3;
60245;PMS5003;46107;53.356;-1.524;2024-02-04T02:08:13;5;3;
60245;PMS5003;46107;53.356;-1.524;2024-02-04T02:10:44;2;2;
60245;PMS5003;46107;53.356;-1.524;2024-02-04T02:13:18;2;2;
60245;PMS5003;46107;53.356;-1.524;2024-02-04T02:15:54;3;2;
60245;PMS5003;46107;53.356;-1.524;2024-02-04T02:18:27;3;3;
60245;PMS5003;46107;53.356;-1.524;2024-02-04T02:21:18;1;1;
60245;PMS5003;46107;53.356;-1.524;2024-02-04T02:24:02;5;5;
60245;PMS5003;46107;53.356;-1.524;2024-02-04T02:26:37;4;3;
60245;PMS5003;46107;53.356;-1.524;2024-02-04T02:29:05;4;3;
60245;PMS5003;46107;53.356;-1.524;2024-02-04T02:31:33;2;2;
60245;PMS5003;46107;53.356;-1.524;2024-02-04T02:34:04;3;3;
60245;PMS5003;46107;53.356;-1.524;2024-02-04T02:36:34;4;4;
60245;PMS5003;46107;53.356;-1.524;2024-02-04T02:39:15;5;1;
60245;PMS5003;46107;53.356;-1.524;2024-02-04T02:41:48;6;4;
60245;PMS5003;46107;53.356;-1.524;2024-02-04T02:44:17;5;5;
60245;PMS5003;46107;53.356;-1.524;2024-02-04T02:46:47;4;4;
60245;PMS5003;46107;53.356;-1.524;2024-02-04T02:49:18;5;5;
60245;PMS5003;46107;53.356;-1.524;2024-02-04T02:51:45;3;3;
60245;PMS5003;46107;53.356;-1.524;2024-02-04T02:54:16;5;3;
60245;PMS5003;46107;53.356;-1.524;2024-02-04T02:56:44;1;1;
60245;PMS5003;46107;53.356;-1.524;2024-02-04T02:59:13;3;2;
60245;PMS5003;46107;53.356;-1.524;2024-02-04T03:01:46;4;3;
60245;PMS5003;46107;53.356;-1.524;2024-02-04T03:04:13;5;4;
60245;PMS5003;46107;53.356;-1.524;2024-02-04T03:06:40;3;3;
60245;PMS5003;46107;53.356;-1.524;2024-02-04T03:09:08;4;3;
60245;PMS5003;46107;53.356;-1.524;2024-02-04T03:11:37;3;3;
60245;PMS5003;46107;53.356;-1.524;2024-02-04T03:14:04;4;4;
60245;PMS5003;46107;53.356;-1.524;2024-02-04T03:16:32;7;4;
60245;PMS5003;46107;53.356;-1.524;2024-02-04T03:18:59;5;5;
60245;PMS5003;46107;53.356;-1.524;2024-02-04T03:21:31;8;8;
60245;PMS5003;46107;53.356;-1.524;2024-02-04T03:23:58;7;7;
60245;PMS5003;46107;53.356;-1.524;2024-02-04T03:26:26;7;7;
60245;PMS5003;46107;53.356;-1.524;2024-02-04T03:28:53;6;6;
60245;PMS5003;46107;53.356;-1.524;2024-02-04T03:31:21;8;7;
60245;PMS5003;46107;53.356;-1.524;2024-02-04T03:33:49;5;5;
60245;PMS5003;46107;53.356;-1.524;2024-02-04T03:36:18;9;8;
60245;PMS5003;46107;53.356;-1.524;2024-02-04T03:38:47;12;8;
60245;PMS5003;46107;53.356;-1.524;2024-02-04T03:41:15;8;8;
60245;PMS5003;46107;53.356;-1.524;2024-02-04T03:43:42;11;9;
60245;PMS5003;46107;53.356;-1.524;2024-02-04T03:46:12;14;12;
60245;PMS5003;46107;53.356;-1.524;2024-02-04T03:48:41;9;9;
60245;PMS5003;46107;53.356;-1.524;2024-02-04T03:51:14;9;9;
60245;PMS5003;46107;53.356;-1.524;2024-02-04T03:53:42;10;10;
60245;PMS5003;46107;53.356;-1.524;2024-02-04T03:56:10;7;7;
60245;PMS5003;46107;53.356;-1.524;2024-02-04T03:58:37;8;7;
60245;PMS5003;46107;53.356;-1.524;2024-02-04T04:01:10;10;10;
60245;PMS5003;46107;53.356;-1.524;2024-02-04T04:03:39;9;9;
60245;PMS5003;46107;53.356;-1.524;2024-02-04T04:06:07;7;7;
60245;PMS5003;46107;53.356;-1.524;2024-02-04T04:08:35;9;8;
60245;PMS5003;46107;53.356;-1.524;2024-02-04T04:11:02;7;6;
60245;PMS5003;46107;53.356;-1.524;2024-02-04T04:13:32;7;7;
60245;PMS5003;46107;53.356;-1.524;2024-02-04T04:16:00;10;7;
60245;PMS5003;46107;53.356;-1.524;2024-02-04T04:18:30;7;6;
60245;PMS5003;46107;53.356;-1.524;2024-02-04T04:20:57;8;6;
60245;PMS5003;46107;53.356;-1.524;2024-02-04T04:23:25;6;6;
60245;PMS5003;46107;53.356;-1.524;2024-02-04T04:25:52;4;4;
60245;PMS5003;46107;53.356;-1.524;2024-02-04T04:28:20;7;5;
60245;PMS5003;46107;53.356;-1.524;2024-02-04T04:30:48;3;3;
60245;PMS5003;46107;53.356;-1.524;2024-02-04T04:33:15;3;3;
60245;PMS5003;46107;53.356;-1.524;2024-02-04T04:35:43;3;3;
60245;PMS5003;46107;53.356;-1.524;2024-02-04T04:38:10;5;5;
60245;PMS5003;46107;53.356;-1.524;2024-02-04T04:40:38;3;3;
60245;PMS5003;46107;53.356;-1.524;2024-02-04T04:43:06;2;2;
60245;PMS5003;46107;53.356;-1.524;2024-02-04T04:45:34;1;1;
60245;PMS5003;46107;53.356;-1.524;2024-02-04T04:48:05;3;3;
60245;PMS5003;46107;53.356;-1.524;2024-02-04T04:50:33;2;2;
60245;PMS5003;46107;53.356;-1.524;2024-02-04T04:53:01;3;3;
60245;PMS5003;46107;53.356;-1.524;2024-02-04T04:55:28;3;3;
60245;PMS5003;46107;53.356;-1.524;2024-02-04T04:57:55;3;3;
60245;PMS5003;46107;53.356;-1.524;2024-02-04T05:00:23;2;1;
60245;PMS5003;46107;53.356;-1.524;2024-02-04T05:02:53;2;2;
60245;PMS5003;46107;53.356;-1.524;2024-02-04T05:05:22;3;2;
60245;PMS5003;46107;53.356;-1.524;2024-02-04T05:07:51;5;5;
60245;PMS5003;46107;53.356;-1.524;2024-02-04T05:10:19;2;2;
60245;PMS5003;46107;53.356;-1.524;2024-02-04T05:12:47;3;3;
60245;PMS5003;46107;53.356;-1.524;2024-02-04T05:15:14;3;2;
60245;PMS5003;46107;53.356;-1.524;2024-02-04T05:17:42;2;2;
60245;PMS5003;46107;53.356;-1.524;2024-02-04T05:20:10;2;2;
60245;PMS5003;46107;53.356;-1.524;2024-02-04T05:22:40;6;2;
60245;PMS5003;46107;53.356;-1.524;2024-02-04T05:25:09;4;2;
60245;PMS5003;46107;53.356;-1.524;2024-02-04T05:27:37;2;2;
60245;PMS5003;46107;53.356;-1.524;2024-02-04T05:30:07;1;1;
60245;PMS5003;46107;53.356;-1.524;2024-02-04T05:32:35;2;2;
60245;PMS5003;46107;53.356;-1.524;2024-02-04T05:35:02;2;2;
60245;PMS5003;46107;53.356;-1.524;2024-02-04T05:37:29;3;2;
60245;PMS5003;46107;53.356;-1.524;2024-02-04T05:39:57;1;0;
60245;PMS5003;46107;53.356;-1.524;2024-02-04T05:42:24;0;0;
60245;PMS5003;46107;53.356;-1.524;2024-02-04T05:44:54;0;0;
60245;PMS5003;46107;53.356;-1.524;2024-02-04T05:47:21;1;1;
60245;PMS5003;46107;53.356;-1.524;2024-02-04T05:49:49;1;1;
60245;PMS5003;46107;53.356;-1.524;2024-02-04T05:52:18;2;1;
60245;PMS5003;46107;53.356;-1.524;2024-02-04T05:54:45;2;2;
60245;PMS5003;46107;53.356;-1.524;2024-02-04T05:57:13;3;3;
60245;PMS5003;46107;53.356;-1.524;2024-02-04T05:59:41;6;5;
60245;PMS5003;46107;53.356;-1.524;2024-02-04T06:02:08;6;6;
60245;PMS5003;46107;53.356;-1.524;2024-02-04T06:04:36;3;3;
60245;PMS5003;46107;53.356;-1.524;2024-02-04T06:07:03;4;3;
60245;PMS5003;46107;53.356;-1.524;2024-02-04T06:09:31;3;3;
60245;PMS5003;46107;53.356;-1.524;2024-02-04T06:11:59;3;3;
60245;PMS5003;46107;53.356;-1.524;2024-02-04T06:14:26;7;6;
60245;PMS5003;46107;53.356;-1.524;2024-02-04T06:16:54;5;4;
60245;PMS5003;46107;53.356;-1.524;2024-02-04T06:19:21;6;4;
60245;PMS5003;46107;53.356;-1.524;2024-02-04T06:21:49;5;5;
60245;PMS5003;46107;53.356;-1.524;2024-02-04T06:24:33;22;10;
60245;PMS5003;46107;53.356;-1.524;2024-02-04T06:27:04;6;4;
60245;PMS5003;46107;53.356;-1.524;2024-02-04T06:29:32;5;5;
60245;PMS5003;46107;53.356;-1.524;2024-02-04T06:32:00;6;5;
60245;PMS5003;46107;53.356;-1.524;2024-02-04T06:34:30;4;4;
60245;PMS5003;46107;53.356;-1.524;2024-02-04T06:36:57;8;7;
60245;PMS5003;46107;53.356;-1.524;2024-02-04T06:39:24;6;6;
60245;PMS5003;46107;53.356;-1.524;2024-02-04T06:41:52;6;5;
60245;PMS5003;46107;53.356;-1.524;2024-02-04T06:44:19;6;6;
60245;PMS5003;46107;53.356;-1.524;2024-02-04T06:46:48;5;5;
60245;PMS5003;46107;53.356;-1.524;2024-02-04T06:49:15;5;3;
60245;PMS5003;46107;53.356;-1.524;2024-02-04T06:51:43;2;2;
60245;PMS5003;46107;53.356;-1.524;2024-02-04T06:54:10;5;5;
60245;PMS5003;46107;53.356;-1.524;2024-02-04T06:56:39;3;3;
60245;PMS5003;46107;53.356;-1.524;2024-02-04T06:59:07;2;2;
60245;PMS5003;46107;53.356;-1.524;2024-02-04T07:01:35;3;3;
60245;PMS5003;46107;53.356;-1.524;2024-02-04T07:04:05;4;3;
60245;PMS5003;46107;53.356;-1.524;2024-02-04T07:06:33;4;4;
60245;PMS5003;46107;53.356;-1.524;2024-02-04T07:09:01;7;5;
60245;PMS5003;46107;53.356;-1.524;2024-02-04T07:11:30;2;2;
60245;PMS5003;46107;53.356;-1.524;2024-02-04T07:13:58;3;3;
60245;PMS5003;46107;53.356;-1.524;2024-02-04T07:16:26;5;5;
60245;PMS5003;46107;53.356;-1.524;2024-02-04T07:18:55;4;4;
60245;PMS5003;46107;53.356;-1.524;2024-02-04T07:21:22;5;4;
60245;PMS5003;46107;53.356;-1.524;2024-02-04T07:23:52;4;3;
60245;PMS5003;46107;53.356;-1.524;2024-02-04T07:26:19;4;2;
60245;PMS5003;46107;53.356;-1.524;2024-02-04T07:28:47;5;3;
60245;PMS5003;46107;53.356;-1.524;2024-02-04T07:31:16;4;4;
60245;PMS5003;46107;53.356;-1.524;2024-02-04T07:33:45;3;3;
60245;PMS5003;46107;53.356;-1.524;2024-02-04T07:36:13;2;2;
60245;PMS5003;46107;53.356;-1.524;2024-02-04T07:38:41;1;1;
60245;PMS5003;46107;53.356;-1.524;2024-02-04T07:41:09;1;1;
60245;PMS5003;46107;53.356;-1.524;2024-02-04T07:43:41;1;1;
60245;PMS5003;46107;53.356;-1.524;2024-02-04T07:46:09;4;2;
60245;PMS5003;46107;53.356;-1.524;2024-02-04T07:48:37;2;2;
60245;PMS5003;46107;53.356;-1.524;2024-02-04T07:51:06;2;2;
60245;PMS5003;46107;53.356;-1.524;2024-02-04T07:53:34;1;1;
60245;PMS5003;46107;53.356;-1.524;2024-02-04T07:56:01;1;1;
60245;PMS5003;46107;53.356;-1.524;2024-02-04T07:58:29;1;1;
60245;PMS5003;46107;53.356;-1.524;2024-02-04T08:00:57;1;1;
60245;PMS5003;46107;53.356;-1.524;2024-02-04T08:03:24;3;3;
60245;PMS5003;46107;53.356;-1.524;2024-02-04T08:05:57;2;2;
60245;PMS5003;46107;53.356;-1.524;2024-02-04T08:08:24;4;2;
60245;PMS5003;46107;53.356;-1.524;2024-02-04T08:10:52;3;3;
60245;PMS5003;46107;53.356;-1.524;2024-02-04T08:13:19;2;1;
60245;PMS5003;46107;53.356;-1.524;2024-02-04T08:15:47;1;1;
60245;PMS5003;46107;53.356;-1.524;2024-02-04T08:18:18;3;3;
60245;PMS5003;46107;53.356;-1.524;2024-02-04T08:20:46;2;2;
60245;PMS5003;46107;53.356;-1.524;2024-02-04T08:23:14;2;2;
60245;PMS5003;46107;53.356;-1.524;2024-02-04T08:25:44;1;1;
60245;PMS5003;46107;53.356;-1.524;2024-02-04T08:28:11;3;3;
60245;PMS5003;46107;53.356;-1.524;2024-02-04T08:30:40;4;4;
60245;PMS5003;46107;53.356;-1.524;2024-02-04T08:33:09;3;2;
60245;PMS5003;46107;53.356;-1.524;2024-02-04T08:35:36;3;3;
60245;PMS5003;46107;53.356;-1.524;2024-02-04T08:38:04;4;3;
60245;PMS5003;46107;53.356;-1.524;2024-02-04T08:40:31;2;2;
60245;PMS5003;46107;53.356;-1.524;2024-02-04T08:42:59;5;5;
60245;PMS5003;46107;53.356;-1.524;2024-02-04T08:45:26;2;2;
60245;PMS5003;46107;53.356;-1.524;2024-02-04T08:47:55;4;4;
60245;PMS5003;46107;53.356;-1.524;2024-02-04T08:50:24;4;4;
60245;PMS5003;46107;53.356;-1.524;2024-02-04T08:52:52;3;3;
60245;PMS5003;46107;53.356;-1.524;2024-02-04T08:55:19;2;2;
60245;PMS5003;46107;53.356;-1.524;2024-02-04T08:57:48;4;4;
60245;PMS5003;46107;53.356;-1.524;2024-02-04T09:00:16;3;3;
60245;PMS5003;46107;53.356;-1.524;2024-02-04T09:02:45;5;4;
60245;PMS5003;46107;53.356;-1.524;2024-02-04T09:05:13;3;3;
60245;PMS5003;46107;53.356;-1.524;2024-02-04T09:07:41;2;2;
60245;PMS5003;46107;53.356;-1.524;2024-02-04T09:10:12;3;3;
60245;PMS5003;46107;53.356;-1.524;2024-02-04T09:12:39;3;3;
60245;PMS5003;46107;53.356;-1.524;2024-02-04T09:15:07;3;3;
60245;PMS5003;46107;53.356;-1.524;2024-02-04T09:17:35;3;3;
60245;PMS5003;46107;53.356;-1.524;2024-02-04T09:20:04;3;3;
60245;PMS5003;46107;53.356;-1.524;2024-02-04T09:22:32;3;3;
60245;PMS5003;46107;53.356;-1.524;2024-02-04T09:25:00;4;4;
60245;PMS5003;46107;53.356;-1.524;2024-02-04T09:27:28;3;3;
60245;PMS5003;46107;53.356;-1.524;2024-02-04T09:29:58;3;3;
60245;PMS5003;46107;53.356;-1.524;2024-02-04T09:32:26;2;2;
60245;PMS5003;46107;53.356;-1.524;2024-02-04T09:34:53;2;2;
60245;PMS5003;46107;53.356;-1.524;2024-02-04T09:37:20;4;4;
60245;PMS5003;46107;53.356;-1.524;2024-02-04T09:39:48;4;4;
60245;PMS5003;46107;53.356;-1.524;2024-02-04T09:42:18;2;2;
60245;PMS5003;46107;53.356;-1.524;2024-02-04T09:44:47;2;2;
60245;PMS5003;46107;53.356;-1.524;2024-02-04T09:47:16;3;2;
60245;PMS5003;46107;53.356;-1.524;2024-02-04T09:49:44;5;3;
60245;PMS5003;46107;53.356;-1.524;2024-02-04T09:52:13;3;3;
60245;PMS5003;46107;53.356;-1.524;2024-02-04T09:54:45;5;4;
60245;PMS5003;46107;53.356;-1.524;2024-02-04T09:57:16;6;4;
60245;PMS5003;46107;53.356;-1.524;2024-02-04T09:59:44;3;3;
60245;PMS5003;46107;53.356;-1.524;2024-02-04T10:02:13;5;5;
60245;PMS5003;46107;53.356;-1.524;2024-02-04T10:04:41;2;2;
60245;PMS5003;46107;53.356;-1.524;2024-02-04T10:07:10;4;3;
60245;PMS5003;46107;53.356;-1.524;2024-02-04T10:09:38;2;2;
60245;PMS5003;46107;53.356;-1.524;2024-02-04T10:12:07;5;5;
60245;PMS5003;46107;53.356;-1.524;2024-02-04T10:14:35;3;1;
60245;PMS5003;46107;53.356;-1.524;2024-02-04T10:17:03;2;2;
60245;PMS5003;46107;53.356;-1.524;2024-02-04T10:19:32;4;3;
60245;PMS5003;46107;53.356;-1.524;2024-02-04T10:22:01;6;4;
60245;PMS5003;46107;53.356;-1.524;2024-02-04T10:24:31;2;2;
60245;PMS5003;46107;53.356;-1.524;2024-02-04T10:26:59;3;3;
60245;PMS5003;46107;53.356;-1.524;2024-02-04T10:29:26;4;1;
60245;PMS5003;46107;53.356;-1.524;2024-02-04T10:31:57;5;2;
60245;PMS5003;46107;53.356;-1.524;2024-02-04T10:34:26;2;2;
60245;PMS5003;46107;53.356;-1.524;2024-02-04T10:36:55;4;3;
60245;PMS5003;46107;53.356;-1.524;2024-02-04T10:39:23;5;4;
60245;PMS5003;46107;53.356;-1.524;2024-02-04T10:41:51;5;2;
60245;PMS5003;46107;53.356;-1.524;2024-02-04T10:44:21;2;2;
60245;PMS5003;46107;53.356;-1.524;2024-02-04T10:46:49;5;5;
60245;PMS5003;46107;53.356;-1.524;2024-02-04T10:49:19;3;3;
60245;PMS5003;46107;53.356;-1.524;2024-02-04T10:51:47;3;2;
60245;PMS5003;46107;53.356;-1.524;2024-02-04T10:54:17;6;4;
60245;PMS5003;46107;53.356;-1.524;2024-02-04T10:56:51;2;2;
60245;PMS5003;46107;53.356;-1.524;2024-02-04T10:59:22;3;3;
60245;PMS5003;46107;53.356;-1.524;2024-02-04T11:01:51;7;4;
60245;PMS5003;46107;53.356;-1.524;2024-02-04T11:04:21;6;6;
60245;PMS5003;46107;53.356;-1.524;2024-02-04T11:06:49;4;4;
60245;PMS5003;46107;53.356;-1.524;2024-02-04T11:09:19;3;3;
60245;PMS5003;46107;53.356;-1.524;2024-02-04T11:11:50;6;5;
60245;PMS5003;46107;53.356;-1.524;2024-02-04T11:14:21;3;3;
60245;PMS5003;46107;53.356;-1.524;2024-02-04T11:16:59;7;6;
60245;PMS5003;46107;53.356;-1.524;2024-02-04T11:19:43;4;3;
60245;PMS5003;46107;53.356;-1.524;2024-02-04T11:22:26;7;6;
60245;PMS5003;46107;53.356;-1.524;2024-02-04T11:25:17;4;4;
60245;PMS5003;46107;53.356;-1.524;2024-02-04T11:28:05;5;5;
60245;PMS5003;46107;53.356;-1.524;2024-02-04T11:30:34;4;3;
60245;PMS5003;46107;53.356;-1.524;2024-02-04T11:33:02;8;5;
60245;PMS5003;46107;53.356;-1.524;2024-02-04T11:35:32;5;3;
60245;PMS5003;46107;53.356;-1.524;2024-02-04T11:38:04;5;4;
60245;PMS5003;46107;53.356;-1.524;2024-02-04T11:40:34;3;3;
60245;PMS5003;46107;53.356;-1.524;2024-02-04T11:43:04;4;1;
60245;PMS5003;46107;53.356;-1.524;2024-02-04T11:45:32;5;5;
60245;PMS5003;46107;53.356;-1.524;2024-02-04T11:48:06;4;3;
60245;PMS5003;46107;53.356;-1.524;2024-02-04T11:50:34;3;2;
60245;PMS5003;46107;53.356;-1.524;2024-02-04T11:53:05;4;4;
60245;PMS5003;46107;53.356;-1.524;2024-02-04T11:55:35;5;5;
60245;PMS5003;46107;53.356;-1.524;2024-02-04T11:58:04;4;4;
60245;PMS5003;46107;53.356;-1.524;2024-02-04T12:00:34;5;4;
60245;PMS5003;46107;53.356;-1.524;2024-02-04T12:03:06;5;5;
60245;PMS5003;46107;53.356;-1.524;2024-02-04T12:05:34;2;2;
60245;PMS5003;46107;53.356;-1.524;2024-02-04T12:08:03;6;5;
60245;PMS5003;46107;53.356;-1.524;2024-02-04T12:10:33;2;2;
60245;PMS5003;46107;53.356;-1.524;2024-02-04T12:13:03;3;2;
60245;PMS5003;46107;53.356;-1.524;2024-02-04T12:15:32;3;3;
60245;PMS5003;46107;53.356;-1.524;2024-02-04T12:18:10;3;3;
60245;PMS5003;46107;53.356;-1.524;2024-02-04T12:20:38;4;3;
60245;PMS5003;46107;53.356;-1.524;2024-02-04T12:23:06;4;3;
60245;PMS5003;46107;53.356;-1.524;2024-02-04T12:25:35;7;3;
60245;PMS5003;46107;53.356;-1.524;2024-02-04T12:28:05;1;1;
60245;PMS5003;46107;53.356;-1.524;2024-02-04T12:30:33;4;3;
60245;PMS5003;46107;53.356;-1.524;2024-02-04T12:33:01;3;3;
60245;PMS5003;46107;53.356;-1.524;2024-02-04T12:35:31;3;3;
60245;PMS5003;46107;53.356;-1.524;2024-02-04T12:38:04;2;2;
60245;PMS5003;46107;53.356;-1.524;2024-02-04T12:40:32;2;2;
60245;PMS5003;46107;53.356;-1.524;2024-02-04T12:43:00;2;2;
60245;PMS5003;46107;53.356;-1.524;2024-02-04T12:45:34;2;2;
60245;PMS5003;46107;53.356;-1.524;2024-02-04T12:48:03;3;3;
60245;PMS5003;46107;53.356;-1.524;2024-02-04T12:50:36;2;2;
60245;PMS5003;46107;53.356;-1.524;2024-02-04T12:53:06;2;2;
60245;PMS5003;46107;53.356;-1.524;2024-02-04T12:55:37;1;1;
60245;PMS5003;46107;53.356;-1.524;2024-02-04T12:58:04;3;3;
60245;PMS5003;46107;53.356;-1.524;2024-02-04T13:00:38;1;1;
60245;PMS5003;46107;53.356;-1.524;2024-02-04T13:03:06;1;1;
60245;PMS5003;46107;53.356;-1.524;2024-02-04T13:05:34;4;3;
60245;PMS5003;46107;53.356;-1.524;2024-02-04T13:08:04;4;4;
60245;PMS5003;46107;53.356;-1.524;2024-02-04T13:10:34;2;2;
60245;PMS5003;46107;53.356;-1.524;2024-02-04T13:13:04;5;5;
60245;PMS5003;46107;53.356;-1.524;2024-02-04T13:15:35;5;5;
60245;PMS5003;46107;53.356;-1.524;2024-02-04T13:18:07;5;5;
60245;PMS5003;46107;53.356;-1.524;2024-02-04T13:20:37;6;5;
60245;PMS5003;46107;53.356;-1.524;2024-02-04T13:23:06;3;3;
60245;PMS5003;46107;53.356;-1.524;2024-02-04T13:25:33;6;5;
60245;PMS5003;46107;53.356;-1.524;2024-02-04T13:28:02;6;5;
60245;PMS5003;46107;53.356;-1.524;2024-02-04T13:30:30;5;4;
60245;PMS5003;46107;53.356;-1.524;2024-02-04T13:32:58;3;3;
60245;PMS5003;46107;53.356;-1.524;2024-02-04T13:35:27;4;4;
60245;PMS5003;46107;53.356;-1.524;2024-02-04T13:37:55;6;6;
60245;PMS5003;46107;53.356;-1.524;2024-02-04T13:40:25;5;5;
60245;PMS5003;46107;53.356;-1.524;2024-02-04T13:42:53;6;6;
60245;PMS5003;46107;53.356;-1.524;2024-02-04T13:45:21;3;3;
60245;PMS5003;46107;53.356;-1.524;2024-02-04T13:47:49;4;4;
60245;PMS5003;46107;53.356;-1.524;2024-02-04T13:50:17;4;4;
60245;PMS5003;46107;53.356;-1.524;2024-02-04T13:52:45;4;4;
60245;PMS5003;46107;53.356;-1.524;2024-02-04T13:55:13;5;4;
60245;PMS5003;46107;53.356;-1.524;2024-02-04T13:57:41;8;7;
60245;PMS5003;46107;53.356;-1.524;2024-02-04T14:00:09;3;3;
60245;PMS5003;46107;53.356;-1.524;2024-02-04T14:02:45;4;3;
60245;PMS5003;46107;53.356;-1.524;2024-02-04T14:05:13;5;4;
60245;PMS5003;46107;53.356;-1.524;2024-02-04T14:07:41;5;5;
60245;PMS5003;46107;53.356;-1.524;2024-02-04T14:10:08;4;4;
60245;PMS5003;46107;53.356;-1.524;2024-02-04T14:12:35;5;5;
60245;PMS5003;46107;53.356;-1.524;2024-02-04T14:15:03;6;5;
60245;PMS5003;46107;53.356;-1.524;2024-02-04T14:17:30;7;5;
60245;PMS5003;46107;53.356;-1.524;2024-02-04T14:19:57;5;5;
60245;PMS5003;46107;53.356;-1.524;2024-02-04T14:22:25;6;6;
60245;PMS5003;46107;53.356;-1.524;2024-02-04T14:24:53;11;8;
60245;PMS5003;46107;53.356;-1.524;2024-02-04T14:27:23;26;23;
60245;PMS5003;46107;53.356;-1.524;2024-02-04T14:29:50;6;6;
60245;PMS5003;46107;53.356;-1.524;2024-02-04T14:32:17;6;6;
60245;PMS5003;46107;53.356;-1.524;2024-02-04T14:34:47;7;6;
60245;PMS5003;46107;53.356;-1.524;2024-02-04T14:37:16;5;5;
60245;PMS5003;46107;53.356;-1.524;2024-02-04T14:39:43;4;4;
60245;PMS5003;46107;53.356;-1.524;2024-02-04T14:42:17;3;3;
60245;PMS5003;46107;53.356;-1.524;2024-02-04T14:44:45;6;5;
60245;PMS5003;46107;53.356;-1.524;2024-02-04T14:47:12;2;2;
60245;PMS5003;46107;53.356;-1.524;2024-02-04T14:49:40;6;5;
60245;PMS5003;46107;53.356;-1.524;2024-02-04T14:52:07;10;8;
60245;PMS5003;46107;53.356;-1.524;2024-02-04T14:54:35;7;6;
60245;PMS5003;46107;53.356;-1.524;2024-02-04T14:57:05;4;3;
60245;PMS5003;46107;53.356;-1.524;2024-02-04T14:59:33;4;2;
60245;PMS5003;46107;53.356;-1.524;2024-02-04T15:02:06;4;4;
60245;PMS5003;46107;53.356;-1.524;2024-02-04T15:04:35;5;5;
60245;PMS5003;46107;53.356;-1.524;2024-02-04T15:07:06;4;4;
60245;PMS5003;46107;53.356;-1.524;2024-02-04T15:09:34;7;5;
60245;PMS5003;46107;53.356;-1.524;2024-02-04T15:12:02;6;5;
60245;PMS5003;46107;53.356;-1.524;2024-02-04T15:14:32;6;6;
60245;PMS5003;46107;53.356;-1.524;2024-02-04T15:17:00;12;9;
60245;PMS5003;46107;53.356;-1.524;2024-02-04T15:19:29;17;12;
60245;PMS5003;46107;53.356;-1.524;2024-02-04T15:22:00;11;9;
60245;PMS5003;46107;53.356;-1.524;2024-02-04T15:24:27;9;8;
60245;PMS5003;46107;53.356;-1.524;2024-02-04T15:26:56;13;11;
60245;PMS5003;46107;53.356;-1.524;2024-02-04T15:29:26;9;8;
60245;PMS5003;46107;53.356;-1.524;2024-02-04T15:31:57;8;7;
60245;PMS5003;46107;53.356;-1.524;2024-02-04T15:34:26;9;8;
60245;PMS5003;46107;53.356;-1.524;2024-02-04T15:36:54;7;4;
60245;PMS5003;46107;53.356;-1.524;2024-02-04T15:39:22;8;7;
60245;PMS5003;46107;53.356;-1.524;2024-02-04T15:41:49;8;7;
60245;PMS5003;46107;53.356;-1.524;2024-02-04T15:44:17;7;5;
60245;PMS5003;46107;53.356;-1.524;2024-02-04T15:46:45;8;8;
60245;PMS5003;46107;53.356;-1.524;2024-02-04T15:49:14;5;4;
60245;PMS5003;46107;53.356;-1.524;2024-02-04T15:51:44;7;6;
60245;PMS5003;46107;53.356;-1.524;2024-02-04T15:54:15;3;3;
60245;PMS5003;46107;53.356;-1.524;2024-02-04T15:56:43;5;4;
60245;PMS5003;46107;53.356;-1.524;2024-02-04T15:59:18;5;4;
60245;PMS5003;46107;53.356;-1.524;2024-02-04T16:01:51;2;2;
60245;PMS5003;46107;53.356;-1.524;2024-02-04T16:04:22;6;5;
60245;PMS5003;46107;53.356;-1.524;2024-02-04T16:06:50;6;6;
60245;PMS5003;46107;53.356;-1.524;2024-02-04T16:09:19;4;4;
60245;PMS5003;46107;53.356;-1.524;2024-02-04T16:11:51;9;5;
60245;PMS5003;46107;53.356;-1.524;2024-02-04T16:14:24;6;6;
60245;PMS5003;46107;53.356;-1.524;2024-02-04T16:16:59;7;6;
60245;PMS5003;46107;53.356;-1.524;2024-02-04T16:19:33;6;6;
60245;PMS5003;46107;53.356;-1.524;2024-02-04T16:22:01;12;10;
60245;PMS5003;46107;53.356;-1.524;2024-02-04T16:24:28;9;6;
60245;PMS5003;46107;53.356;-1.524;2024-02-04T16:26:56;7;7;
60245;PMS5003;46107;53.356;-1.524;2024-02-04T16:29:28;5;5;
60245;PMS5003;46107;53.356;-1.524;2024-02-04T16:31:55;11;9;
60245;PMS5003;46107;53.356;-1.524;2024-02-04T16:34:26;9;9;
60245;PMS5003;46107;53.356;-1.524;2024-02-04T16:36:56;5;5;
60245;PMS5003;46107;53.356;-1.524;2024-02-04T16:39:24;5;5;
60245;PMS5003;46107;53.356;-1.524;2024-02-04T16:41:52;11;7;
60245;PMS5003;46107;53.356;-1.524;2024-02-04T16:44:20;9;7;
60245;PMS5003;46107;53.356;-1.524;2024-02-04T16:46:50;5;5;
60245;PMS5003;46107;53.356;-1.524;2024-02-04T16:49:19;6;6;